Hornblower Hybrid — WDE6422 — position and weather

sailwx.info

Track history (hours):
 
Tides and Currents Weather Stations Pressure Air Temp Water Temp Dewpoint Dewpoint Depression Visibility Wind Speed Wind Dir Waves Ship Positions

Hornblower Hybrid

Owner: Hornblower Hybrid LLC, San Francisco, CA. More information available from US FCC via Universal Licensing System and Coast Guard Vessel Documentation Center.

Last reported at 2018-Jul-21 22:27 UTC. Time now 2018-Jul-22 01:11 UTC.
Position N 37°48' W 122°24'.

Length 20 m; draft 2 m.

Type: Ship. MMSI: 367380120.

Date/timePositionNaut miles runAvg speedWind from/ knotsBaromVisibWave heightAir tempDewpointWater temp
2018-Jul-21 22:27N 37°48' W 122°24'2 3.6
2018-Jul-21 22:00N 37°50' W 122°25'2 4.8
2018-Jul-21 21:30N 37°52' W 122°26'0 0.6
2018-Jul-21 21:00N 37°52' W 122°26'3 5.4
2018-Jul-21 20:30N 37°50' W 122°25'3 5.2
2018-Jul-21 20:00N 37°52' W 122°26'1 1.8
2018-Jul-21 19:30N 37°51' W 122°27'2 4.4
2018-Jul-21 19:00N 37°50' W 122°25'3 5.2
2018-Jul-21 18:30N 37°52' W 122°26'0 0.1
2018-Jul-21 18:00N 37°52' W 122°26'0 0.0
2018-Jul-21 17:30N 37°52' W 122°26'2 4.5
2018-Jul-21 17:00N 37°50' W 122°25'2 3.5
2018-Jul-21 16:30N 37°48' W 122°24'0 0.0
2018-Jul-21 16:00N 37°48' W 122°24'0 0.0
2018-Jul-21 15:30N 37°48' W 122°24'0 0.0
2018-Jul-20 22:28N 37°48' W 122°24'2 3.7
2018-Jul-20 22:00N 37°50' W 122°25'2 4.7
2018-Jul-20 21:30N 37°52' W 122°26'1 1.9
2018-Jul-20 21:00N 37°51' W 122°27'2 3.8
2018-Jul-20 20:30N 37°50' W 122°25'3 5.2
2018-Jul-20 20:00N 37°52' W 122°26'1 1.8
2018-Jul-20 19:30N 37°51' W 122°27'2 4.3
2018-Jul-20 19:00N 37°50' W 122°25'3 5.2
2018-Jul-20 18:30N 37°52' W 122°26'0 0.0
2018-Jul-20 18:00N 37°52' W 122°26'0 0.0
2018-Jul-20 17:30N 37°52' W 122°26'2 4.7
2018-Jul-20 17:00N 37°50' W 122°25'2 3.3
2018-Jul-20 16:30N 37°48' W 122°24'0 0.0
2018-Jul-20 16:00N 37°48' W 122°24'0 0.1
2018-Jul-20 15:30N 37°48' W 122°24'0 0.0
2018-Jul-19 22:26N 37°48' W 122°24'2 3.9
2018-Jul-19 22:00N 37°50' W 122°25'2 4.6
2018-Jul-19 21:30N 37°52' W 122°26'1 1.7
2018-Jul-19 21:00N 37°52' W 122°25'2 4.5
2018-Jul-19 20:30N 37°50' W 122°25'3 5.2
2018-Jul-19 20:00N 37°52' W 122°26'1 2.0
2018-Jul-19 19:30N 37°51' W 122°27'2 4.0
2018-Jul-19 19:00N 37°50' W 122°25'3 5.2
2018-Jul-19 18:30N 37°52' W 122°26'0 0.1
2018-Jul-19 18:00N 37°52' W 122°26'0 0.0
2018-Jul-19 17:29N 37°52' W 122°26'2 5.0
2018-Jul-19 17:00N 37°50' W 122°25'1 2.9
2018-Jul-19 16:30N 37°49' W 122°24'0 0.0
2018-Jul-18 22:29N 37°48' W 122°24'2 3.2
2018-Jul-18 22:00N 37°50' W 122°25'2 4.9
2018-Jul-18 21:30N 37°52' W 122°26'1 1.9
2018-Jul-18 21:00N 37°52' W 122°25'2 4.5
2018-Jul-18 20:30N 37°50' W 122°25'3 5.2
2018-Jul-18 20:00N 37°52' W 122°26'1 1.7
2018-Jul-18 19:30N 37°51' W 122°27'2 4.3
2018-Jul-18 19:00N 37°50' W 122°25'3 5.3
2018-Jul-18 18:30N 37°52' W 122°26'0 0.2
2018-Jul-18 18:00N 37°52' W 122°26'0 0.0
2018-Jul-18 17:30N 37°52' W 122°26'2 4.1
2018-Jul-18 17:00N 37°50' W 122°25'2 3.8
2018-Jul-18 16:30N 37°48' W 122°24'0 0.0
2018-Jul-18 16:00N 37°48' W 122°24'0 0.0
2018-Jul-18 15:30N 37°48' W 122°24'0 0.0
2018-Jul-17 22:39N 37°48' W 122°24'0 0.3
2018-Jul-17 22:30N 37°48' W 122°24'2 3.2
2018-Jul-17 22:00N 37°50' W 122°25'2 4.7
2018-Jul-17 21:30N 37°52' W 122°26'1 1.9
2018-Jul-17 21:00N 37°52' W 122°25'2 4.2
2018-Jul-17 20:30N 37°50' W 122°25'3 5.3
2018-Jul-17 20:00N 37°52' W 122°26'1 1.8
2018-Jul-17 19:30N 37°51' W 122°27'2 4.6
2018-Jul-17 19:00N 37°50' W 122°25'3 5.2
2018-Jul-17 18:30N 37°52' W 122°26'0 0.0
2018-Jul-17 18:00N 37°52' W 122°26'0 0.0
2018-Jul-17 17:30N 37°52' W 122°26'2 4.1
2018-Jul-17 17:00N 37°50' W 122°25'2 3.8
2018-Jul-17 16:30N 37°48' W 122°24'0 0.0
2018-Jul-17 16:00N 37°48' W 122°24'0 0.0
2018-Jul-17 15:30N 37°48' W 122°24'0 0.0
2018-Jul-16 22:26N 37°48' W 122°24'2 3.7
2018-Jul-16 22:00N 37°50' W 122°25'2 5.0
2018-Jul-16 21:30N 37°52' W 122°26'1 2.3
2018-Jul-16 21:00N 37°51' W 122°25'2 3.6
2018-Jul-16 20:31N 37°50' W 122°25'3 5.2
2018-Jul-16 20:00N 37°52' W 122°26'1 2.1
2018-Jul-16 19:30N 37°51' W 122°27'2 3.8
2018-Jul-16 19:00N 37°50' W 122°25'3 5.3
2018-Jul-16 18:30N 37°52' W 122°26'0 0.1
2018-Jul-16 17:59N 37°52' W 122°26'0 0.0
2018-Jul-16 17:30N 37°52' W 122°26'2 4.4
2018-Jul-16 17:00N 37°50' W 122°25'2 3.6
2018-Jul-16 16:30N 37°48' W 122°24'0 0.0
2018-Jul-16 16:00N 37°48' W 122°24'0 0.0
2018-Jul-16 15:30N 37°48' W 122°24'0 0.0
2018-Jul-15 22:28N 37°48' W 122°24'2 3.9
2018-Jul-15 22:00N 37°50' W 122°25'2 4.5
2018-Jul-15 21:30N 37°52' W 122°26'1 2.3
2018-Jul-15 21:01N 37°52' W 122°25'2 3.8
2018-Jul-15 20:30N 37°50' W 122°25'3 5.2
2018-Jul-15 20:00N 37°52' W 122°26'1 1.9
2018-Jul-15 19:30N 37°51' W 122°26'2 4.0
2018-Jul-15 19:00N 37°50' W 122°25'3 5.3
2018-Jul-15 18:30N 37°52' W 122°26'0 0.0
2018-Jul-15 18:00N 37°52' W 122°26'0 0.0
2018-Jul-15 17:31N 37°52' W 122°26'2 4.7
2018-Jul-15 17:00N 37°50' W 122°25'2 3.2
2018-Jul-15 16:30N 37°48' W 122°24'0 0.0
2018-Jul-15 16:00N 37°48' W 122°24'0 0.1
2018-Jul-15 15:31N 37°48' W 122°24'0 0.0
2018-Jul-14 22:28N 37°48' W 122°24'3 5.5
2018-Jul-14 22:00N 37°51' W 122°25'2 3.5
2018-Jul-14 21:30N 37°52' W 122°26'1 2.1
2018-Jul-14 21:00N 37°52' W 122°25'2 4.4
2018-Jul-14 20:30N 37°50' W 122°25'3 5.2
2018-Jul-14 20:00N 37°52' W 122°26'1 1.7
2018-Jul-14 19:30N 37°52' W 122°27'2 4.7
2018-Jul-14 19:01N 37°50' W 122°25'3 5.2
2018-Jul-14 18:30N 37°52' W 122°26'0 0.0
2018-Jul-14 18:00N 37°52' W 122°26'0 0.1
2018-Jul-14 17:31N 37°52' W 122°26'2 4.6
2018-Jul-14 17:01N 37°50' W 122°25'2 3.4
2018-Jul-14 16:30N 37°48' W 122°24'0 0.0
2018-Jul-14 16:01N 37°48' W 122°24'0 0.0
2018-Jul-14 15:31N 37°48' W 122°24'0 0.0
2018-Jul-13 22:32N 37°48' W 122°24'0 0.0
2018-Jul-13 22:31N 37°48' W 122°24'2 4.4
2018-Jul-13 22:00N 37°51' W 122°25'2 3.8
2018-Jul-13 21:30N 37°52' W 122°26'1 1.4
2018-Jul-13 21:01N 37°52' W 122°27'2 4.9
2018-Jul-13 20:31N 37°50' W 122°25'3 5.1
2018-Jul-13 20:00N 37°52' W 122°26'1 1.5
2018-Jul-13 19:30N 37°52' W 122°27'3 5.0
2018-Jul-13 19:01N 37°50' W 122°25'3 5.2
2018-Jul-13 18:30N 37°52' W 122°26'0 0.1
2018-Jul-13 18:01N 37°52' W 122°26'0 0.0
2018-Jul-13 17:30N 37°52' W 122°26'2 5.1
2018-Jul-13 17:00N 37°50' W 122°25'2 3.0
2018-Jul-13 16:30N 37°48' W 122°24'0 0.0
2018-Jul-12 22:37N 37°48' W 122°24'0 0.4
2018-Jul-12 22:30N 37°48' W 122°24'2 4.6
2018-Jul-12 22:00N 37°51' W 122°25'2 3.6
2018-Jul-12 21:30N 37°52' W 122°26'1 1.7
2018-Jul-12 21:00N 37°52' W 122°27'2 4.6
2018-Jul-12 20:30N 37°50' W 122°25'3 5.2
2018-Jul-12 20:00N 37°52' W 122°27'0 0.9
2018-Jul-12 19:30N 37°52' W 122°27'2 4.5
2018-Jul-12 19:00N 37°50' W 122°25'3 5.1
2018-Jul-12 18:30N 37°52' W 122°27'0 0.8
2018-Jul-12 18:00N 37°52' W 122°26'0 0.0
2018-Jul-12 17:30N 37°52' W 122°26'2 4.8
2018-Jul-12 17:00N 37°50' W 122°25'2 3.2
2018-Jul-12 16:30N 37°48' W 122°24'0 0.0
2018-Jul-12 16:00N 37°48' W 122°24'0 0.0
2018-Jul-12 15:30N 37°48' W 122°24'0 0.0
2018-Jul-11 22:38N 37°48' W 122°24'0 0.0
2018-Jul-11 22:29N 37°48' W 122°24'  
Track history (hours):
 
Tides and Currents Weather Stations Pressure Air Temp Water Temp Dewpoint Dewpoint Depression Visibility Wind Speed Wind Dir Waves Ship Positions

Hornblower Hybrid

Owner: Hornblower Hybrid LLC, San Francisco, CA. More information available from US FCC via Universal Licensing System and Coast Guard Vessel Documentation Center.

Last reported at 2018-Jul-21 22:27 UTC. Time now 2018-Jul-22 01:11 UTC.
Position N 37°48' W 122°24'.

Length 20 m; draft 2 m.

Type: Ship. MMSI: 367380120.

Date/timePositionNaut miles runAvg speedWind from/ knotsBaromVisibWave heightAir tempDewpointWater temp
2018-Jul-21 22:27N 37°48' W 122°24'2 3.6
2018-Jul-21 22:00N 37°50' W 122°25'2 4.8
2018-Jul-21 21:30N 37°52' W 122°26'0 0.6
2018-Jul-21 21:00N 37°52' W 122°26'3 5.4
2018-Jul-21 20:30N 37°50' W 122°25'3 5.2
2018-Jul-21 20:00N 37°52' W 122°26'1 1.8
2018-Jul-21 19:30N 37°51' W 122°27'2 4.4
2018-Jul-21 19:00N 37°50' W 122°25'3 5.2
2018-Jul-21 18:30N 37°52' W 122°26'0 0.1
2018-Jul-21 18:00N 37°52' W 122°26'0 0.0
2018-Jul-21 17:30N 37°52' W 122°26'2 4.5
2018-Jul-21 17:00N 37°50' W 122°25'2 3.5
2018-Jul-21 16:30N 37°48' W 122°24'0 0.0
2018-Jul-21 16:00N 37°48' W 122°24'0 0.0
2018-Jul-21 15:30N 37°48' W 122°24'0 0.0
2018-Jul-20 22:28N 37°48' W 122°24'2 3.7
2018-Jul-20 22:00N 37°50' W 122°25'2 4.7
2018-Jul-20 21:30N 37°52' W 122°26'1 1.9
2018-Jul-20 21:00N 37°51' W 122°27'2 3.8
2018-Jul-20 20:30N 37°50' W 122°25'3 5.2
2018-Jul-20 20:00N 37°52' W 122°26'1 1.8
2018-Jul-20 19:30N 37°51' W 122°27'2 4.3
2018-Jul-20 19:00N 37°50' W 122°25'3 5.2
2018-Jul-20 18:30N 37°52' W 122°26'0 0.0
2018-Jul-20 18:00N 37°52' W 122°26'0 0.0
2018-Jul-20 17:30N 37°52' W 122°26'2 4.7
2018-Jul-20 17:00N 37°50' W 122°25'2 3.3
2018-Jul-20 16:30N 37°48' W 122°24'0 0.0
2018-Jul-20 16:00N 37°48' W 122°24'0 0.1
2018-Jul-20 15:30N 37°48' W 122°24'0 0.0
2018-Jul-19 22:26N 37°48' W 122°24'2 3.9
2018-Jul-19 22:00N 37°50' W 122°25'2 4.6
2018-Jul-19 21:30N 37°52' W 122°26'1 1.7
2018-Jul-19 21:00N 37°52' W 122°25'2 4.5
2018-Jul-19 20:30N 37°50' W 122°25'3 5.2
2018-Jul-19 20:00N 37°52' W 122°26'1 2.0
2018-Jul-19 19:30N 37°51' W 122°27'2 4.0
2018-Jul-19 19:00N 37°50' W 122°25'3 5.2
2018-Jul-19 18:30N 37°52' W 122°26'0 0.1
2018-Jul-19 18:00N 37°52' W 122°26'0 0.0
2018-Jul-19 17:29N 37°52' W 122°26'2 5.0
2018-Jul-19 17:00N 37°50' W 122°25'1 2.9
2018-Jul-19 16:30N 37°49' W 122°24'0 0.0
2018-Jul-18 22:29N 37°48' W 122°24'2 3.2
2018-Jul-18 22:00N 37°50' W 122°25'2 4.9
2018-Jul-18 21:30N 37°52' W 122°26'1 1.9
2018-Jul-18 21:00N 37°52' W 122°25'2 4.5
2018-Jul-18 20:30N 37°50' W 122°25'3 5.2
2018-Jul-18 20:00N 37°52' W 122°26'1 1.7
2018-Jul-18 19:30N 37°51' W 122°27'2 4.3
2018-Jul-18 19:00N 37°50' W 122°25'3 5.3
2018-Jul-18 18:30N 37°52' W 122°26'0 0.2
2018-Jul-18 18:00N 37°52' W 122°26'0 0.0
2018-Jul-18 17:30N 37°52' W 122°26'2 4.1
2018-Jul-18 17:00N 37°50' W 122°25'2 3.8
2018-Jul-18 16:30N 37°48' W 122°24'0 0.0
2018-Jul-18 16:00N 37°48' W 122°24'0 0.0
2018-Jul-18 15:30N 37°48' W 122°24'0 0.0
2018-Jul-17 22:39N 37°48' W 122°24'0 0.3
2018-Jul-17 22:30N 37°48' W 122°24'2 3.2
2018-Jul-17 22:00N 37°50' W 122°25'2 4.7
2018-Jul-17 21:30N 37°52' W 122°26'1 1.9
2018-Jul-17 21:00N 37°52' W 122°25'2 4.2
2018-Jul-17 20:30N 37°50' W 122°25'3 5.3
2018-Jul-17 20:00N 37°52' W 122°26'1 1.8
2018-Jul-17 19:30N 37°51' W 122°27'2 4.6
2018-Jul-17 19:00N 37°50' W 122°25'3 5.2
2018-Jul-17 18:30N 37°52' W 122°26'0 0.0
2018-Jul-17 18:00N 37°52' W 122°26'0 0.0
2018-Jul-17 17:30N 37°52' W 122°26'2 4.1
2018-Jul-17 17:00N 37°50' W 122°25'2 3.8
2018-Jul-17 16:30N 37°48' W 122°24'0 0.0
2018-Jul-17 16:00N 37°48' W 122°24'0 0.0
2018-Jul-17 15:30N 37°48' W 122°24'0 0.0
2018-Jul-16 22:26N 37°48' W 122°24'2 3.7
2018-Jul-16 22:00N 37°50' W 122°25'2 5.0
2018-Jul-16 21:30N 37°52' W 122°26'1 2.3
2018-Jul-16 21:00N 37°51' W 122°25'2 3.6
2018-Jul-16 20:31N 37°50' W 122°25'3 5.2
2018-Jul-16 20:00N 37°52' W 122°26'1 2.1
2018-Jul-16 19:30N 37°51' W 122°27'2 3.8
2018-Jul-16 19:00N 37°50' W 122°25'3 5.3
2018-Jul-16 18:30N 37°52' W 122°26'0 0.1
2018-Jul-16 17:59N 37°52' W 122°26'0 0.0
2018-Jul-16 17:30N 37°52' W 122°26'2 4.4
2018-Jul-16 17:00N 37°50' W 122°25'2 3.6
2018-Jul-16 16:30N 37°48' W 122°24'0 0.0
2018-Jul-16 16:00N 37°48' W 122°24'0 0.0
2018-Jul-16 15:30N 37°48' W 122°24'0 0.0
2018-Jul-15 22:28N 37°48' W 122°24'2 3.9
2018-Jul-15 22:00N 37°50' W 122°25'2 4.5
2018-Jul-15 21:30N 37°52' W 122°26'1 2.3
2018-Jul-15 21:01N 37°52' W 122°25'2 3.8
2018-Jul-15 20:30N 37°50' W 122°25'3 5.2
2018-Jul-15 20:00N 37°52' W 122°26'1 1.9
2018-Jul-15 19:30N 37°51' W 122°26'2 4.0
2018-Jul-15 19:00N 37°50' W 122°25'3 5.3
2018-Jul-15 18:30N 37°52' W 122°26'0 0.0
2018-Jul-15 18:00N 37°52' W 122°26'0 0.0
2018-Jul-15 17:31N 37°52' W 122°26'2 4.7
2018-Jul-15 17:00N 37°50' W 122°25'2 3.2
2018-Jul-15 16:30N 37°48' W 122°24'0 0.0
2018-Jul-15 16:00N 37°48' W 122°24'0 0.1
2018-Jul-15 15:31N 37°48' W 122°24'0 0.0
2018-Jul-14 22:28N 37°48' W 122°24'3 5.5
2018-Jul-14 22:00N 37°51' W 122°25'2 3.5
2018-Jul-14 21:30N 37°52' W 122°26'1 2.1
2018-Jul-14 21:00N 37°52' W 122°25'2 4.4
2018-Jul-14 20:30N 37°50' W 122°25'3 5.2
2018-Jul-14 20:00N 37°52' W 122°26'1 1.7
2018-Jul-14 19:30N 37°52' W 122°27'2 4.7
2018-Jul-14 19:01N 37°50' W 122°25'3 5.2
2018-Jul-14 18:30N 37°52' W 122°26'0 0.0
2018-Jul-14 18:00N 37°52' W 122°26'0 0.1
2018-Jul-14 17:31N 37°52' W 122°26'2 4.6
2018-Jul-14 17:01N 37°50' W 122°25'2 3.4
2018-Jul-14 16:30N 37°48' W 122°24'0 0.0
2018-Jul-14 16:01N 37°48' W 122°24'0 0.0
2018-Jul-14 15:31N 37°48' W 122°24'0 0.0
2018-Jul-13 22:32N 37°48' W 122°24'0 0.0
2018-Jul-13 22:31N 37°48' W 122°24'2 4.4
2018-Jul-13 22:00N 37°51' W 122°25'2 3.8
2018-Jul-13 21:30N 37°52' W 122°26'1 1.4
2018-Jul-13 21:01N 37°52' W 122°27'2 4.9
2018-Jul-13 20:31N 37°50' W 122°25'3 5.1
2018-Jul-13 20:00N 37°52' W 122°26'1 1.5
2018-Jul-13 19:30N 37°52' W 122°27'3 5.0
2018-Jul-13 19:01N 37°50' W 122°25'3 5.2
2018-Jul-13 18:30N 37°52' W 122°26'0 0.1
2018-Jul-13 18:01N 37°52' W 122°26'0 0.0
2018-Jul-13 17:30N 37°52' W 122°26'2 5.1
2018-Jul-13 17:00N 37°50' W 122°25'2 3.0
2018-Jul-13 16:30N 37°48' W 122°24'0 0.0
2018-Jul-12 22:37N 37°48' W 122°24'0 0.4
2018-Jul-12 22:30N 37°48' W 122°24'2 4.6
2018-Jul-12 22:00N 37°51' W 122°25'2 3.6
2018-Jul-12 21:30N 37°52' W 122°26'1 1.7
2018-Jul-12 21:00N 37°52' W 122°27'2 4.6
2018-Jul-12 20:30N 37°50' W 122°25'3 5.2
2018-Jul-12 20:00N 37°52' W 122°27'0 0.9
2018-Jul-12 19:30N 37°52' W 122°27'2 4.5
2018-Jul-12 19:00N 37°50' W 122°25'3 5.1
2018-Jul-12 18:30N 37°52' W 122°27'0 0.8
2018-Jul-12 18:00N 37°52' W 122°26'0 0.0
2018-Jul-12 17:30N 37°52' W 122°26'2 4.8
2018-Jul-12 17:00N 37°50' W 122°25'2 3.2
2018-Jul-12 16:30N 37°48' W 122°24'0 0.0
2018-Jul-12 16:00N 37°48' W 122°24'0 0.0
2018-Jul-12 15:30N 37°48' W 122°24'0 0.0
2018-Jul-11 22:38N 37°48' W 122°24'0 0.0
2018-Jul-11 22:29N 37°48' W 122°24'  

Dump ship's entire track history